Hernani, Spain
Current Conditions -  °F | °C
As of 2:00 PM on Thursday 18 Dec 2014 (Local Time) from LESO Reporting Station
Overcast Overcast  
Wind Chill: 13°   Ceiling: 2300
Heat Index: 13°   Visibility: 6mi
Dew Point: 10°   Wind: 3mph
Humidity: 82%   Direction: 210°SSW
Pressure: 30.42"   Gusts: NA
Location:  43.27°N, 1.98°W
Report Text: LESO 181300Z 21003KT 160V250 9999 SCT018 OVC023 13/10 Q1030
Loading
Personal Weather Stations






























Interactive Weather Map New forecast layout! Learn more

10-Day Weather Forecast

Advertisements
Track Severe Weather on mobile